Time,TemperatureF,DewpointF,PressureIn,WindDirection,WindDirectionDegrees,WindSpeedMPH,WindSpeedGustMPH,Humidity,HourlyPrecipIn,Conditions,Clouds,dailyrainin,SoftwareType,DateUTC
2013-03-31 00:00:00,71.1,49.2,30.24,SE,135,10.4,10.4,46,0.00,CLR,,0.00,WeatherDisplay:10.37,2013-03-31 04:00:00,
2013-03-31 00:01:00,71.2,49.4,30.24,South,180,10.4,10.4,46,0.00,CLR,,0.00,WeatherDisplay:10.37,2013-03-31 04:01:00,
2013-03-31 00:06:00,71.1,49.2,30.24,WSW,248,8.1,8.1,46,0.00,CLR,,0.00,WeatherDisplay:10.37,2013-03-31 04:06:00,
2013-03-31 00:11:00,70.9,49.1,30.24,South,180,6.9,6.9,46,0.00,CLR,,0.00,WeatherDisplay:10.37,2013-03-31 04:11:00,
2013-03-31 00:17:00,71.1,49.2,30.18,SE,135,12.7,12.7,46,0.00,CLR,,0.00,WeatherDisplay:10.37,2013-03-31 04:17:00,
2013-03-31 00:22:00,71.1,49.2,30.18,SSE,158,8.1,8.1,46,0.00,CLR,,0.00,WeatherDisplay:10.37,2013-03-31 04:22:00,
2013-03-31 00:27:00,71.1,49.2,30.18,SW,225,8.1,8.1,46,0.00,CLR,,0.00,WeatherDisplay:10.37,2013-03-31 04:27:00,
2013-03-31 00:32:00,71.1,49.2,30.18,SSE,158,9.2,9.2,46,0.00,CLR,,0.00,WeatherDisplay:10.37,2013-03-31 04:32:00,
2013-03-31 00:38:00,70.9,49.6,30.18,SE,135,10.4,10.4,47,0.00,CLR,,0.00,WeatherDisplay:10.37,2013-03-31 04:38:00,
2013-03-31 00:43:00,70.9,49.6,30.18,East,90,8.1,8.1,47,0.00,CLR,,0.00,WeatherDisplay:10.37,2013-03-31 04:43:00,
2013-03-31 00:48:00,70.9,49.6,30.21,South,180,6.9,6.9,47,0.00,CLR,,0.00,WeatherDisplay:10.37,2013-03-31 04:48:00,
2013-03-31 00:53:00,70.9,49.6,30.21,ESE,112,6.9,6.9,47,0.00,CLR,,0.00,WeatherDisplay:10.37,2013-03-31 04:53:00,
2013-03-31 00:59:00,70.9,49.6,30.21,SE,135,6.9,6.9,47,0.00,CLR,,0.00,WeatherDisplay:10.37,2013-03-31 04:59:00,
2013-03-31 01:04:00,70.9,49.6,30.21,SE,135,7.8,7.8,47,0.00,CLR,,0.00,WeatherDisplay:10.37,2013-03-31 05:04:00,
2013-03-31 01:09:00,70.9,49.6,30.21,SE,135,10.4,10.4,47,0.00,CLR,,0.00,WeatherDisplay:10.37,2013-03-31 05:09:00,
2013-03-31 01:14:00,70.9,50.2,30.21,SE,135,9.2,9.2,48,0.00,CLR,,0.00,WeatherDisplay:10.37,2013-03-31 05:14:00,
2013-03-31 01:19:00,70.9,50.2,30.21,South,180,8.1,8.1,48,0.00,CLR,,0.00,WeatherDisplay:10.37,2013-03-31 05:19:00,
2013-03-31 01:25:00,70.9,49.6,30.21,SE,144,6.0,10.0,47,0.00,CLR,,0.00,WeatherDisplay:10.37,2013-03-31 05:25:00,
2013-03-31 01:30:00,70.9,49.6,30.21,SSW,202,8.1,8.1,47,0.00,CLR,,0.00,WeatherDisplay:10.37,2013-03-31 05:30:00,
2013-03-31 01:35:00,70.9,49.6,30.18,South,180,8.1,8.1,47,0.00,CLR,,0.00,WeatherDisplay:10.37,2013-03-31 05:35:00,
2013-03-31 01:41:00,70.5,49.3,30.18,SW,225,6.9,6.9,47,0.00,CLR,,0.00,WeatherDisplay:10.37,2013-03-31 05:41:00,
2013-03-31 01:46:00,70.9,49.1,30.21,NE,45,11.5,11.5,46,0.00,CLR,,0.00,WeatherDisplay:10.37,2013-03-31 05:46:00,
2013-03-31 01:51:00,70.7,49.5,30.21,South,180,11.5,11.5,47,0.00,CLR,,0.00,WeatherDisplay:10.37,2013-03-31 05:51:00,
2013-03-31 01:56:00,70.9,49.6,30.21,ENE,68,8.1,8.1,47,0.00,CLR,,0.00,WeatherDisplay:10.37,2013-03-31 05:56:00,
2013-03-31 02:02:00,70.9,49.6,30.21,SE,135,9.2,9.2,47,0.00,CLR,,0.00,WeatherDisplay:10.37,2013-03-31 06:02:00,
2013-03-31 02:07:00,70.9,49.6,30.21,SE,135,8.1,8.1,47,0.00,CLR,,0.00,WeatherDisplay:10.37,2013-03-31 06:07:00,
2013-03-31 02:12:00,70.9,49.6,30.21,SE,135,8.1,8.1,47,0.00,CLR,,0.00,WeatherDisplay:10.37,2013-03-31 06:12:00,
2013-03-31 02:17:00,70.9,49.6,30.21,East,90,8.1,8.1,47,0.00,CLR,,0.00,WeatherDisplay:10.37,2013-03-31 06:17:00,
2013-03-31 02:22:00,70.9,49.6,30.21,SE,135,10.4,10.4,47,0.00,CLR,,0.00,WeatherDisplay:10.37,2013-03-31 06:22:00,
2013-03-31 02:27:00,70.9,49.6,30.21,South,180,9.2,9.2,47,0.00,CLR,,0.00,WeatherDisplay:10.37,2013-03-31 06:27:00,
2013-03-31 02:32:00,70.5,49.9,30.21,SE,135,10.0,10.0,48,0.00,CLR,,0.00,WeatherDisplay:10.37,2013-03-31 06:32:00,
2013-03-31 02:37:00,70.5,49.9,30.18,SE,135,8.1,8.1,48,0.00,CLR,,0.00,WeatherDisplay:10.37,2013-03-31 06:37:00,
2013-03-31 02:42:00,70.5,49.9,30.18,ENE,68,6.9,6.9,48,0.00,CLR,,0.00,WeatherDisplay:10.37,2013-03-31 06:42:00,
2013-03-31 02:47:00,70.5,49.9,30.18,South,180,9.7,9.7,48,0.00,CLR,,0.00,WeatherDisplay:10.37,2013-03-31 06:47:00,
2013-03-31 02:53:00,70.5,50.4,30.18,ESE,112,11.5,11.5,49,0.00,CLR,,0.00,WeatherDisplay:10.37,2013-03-31 06:53:00,
2013-03-31 02:58:00,70.5,50.4,30.18,SE,135,11.5,11.5,49,0.00,CLR,,0.00,WeatherDisplay:10.37,2013-03-31 06:58:00,
2013-03-31 03:03:00,70.5,49.9,30.18,SE,135,8.1,8.1,48,0.00,CLR,,0.00,WeatherDisplay:10.37,2013-03-31 07:03:00,
2013-03-31 03:08:00,70.3,50.3,30.18,SW,225,10.4,10.4,49,0.00,CLR,,0.00,WeatherDisplay:10.37,2013-03-31 07:08:00,
2013-03-31 03:13:00,70.3,50.8,30.18,East,90,4.6,4.6,50,0.00,CLR,,0.00,WeatherDisplay:10.37,2013-03-31 07:13:00,
2013-03-31 03:18:00,70.3,50.3,30.18,SSE,158,6.9,6.9,49,0.00,CLR,,0.00,WeatherDisplay:10.37,2013-03-31 07:18:00,
2013-03-31 03:23:00,70.3,50.3,30.18,SSE,158,8.1,8.1,49,0.00,CLR,,0.00,WeatherDisplay:10.37,2013-03-31 07:23:00,
2013-03-31 03:28:00,70.3,50.3,30.18,East,90,10.4,10.4,49,0.00,CLR,,0.00,WeatherDisplay:10.37,2013-03-31 07:28:00,
2013-03-31 03:33:00,70.3,50.3,30.18,ESE,112,8.1,8.1,49,0.00,CLR,,0.00,WeatherDisplay:10.37,2013-03-31 07:33:00,
2013-03-31 03:38:00,70.3,50.8,30.18,South,180,8.1,8.1,50,0.00,CLR,,0.00,WeatherDisplay:10.37,2013-03-31 07:38:00,
2013-03-31 03:43:00,70.3,50.8,30.18,SE,135,10.7,10.7,50,0.00,CLR,,0.00,WeatherDisplay:10.37,2013-03-31 07:43:00,
2013-03-31 03:48:00,70.3,50.8,30.15,East,90,6.9,6.9,50,0.00,CLR,,0.00,WeatherDisplay:10.37,2013-03-31 07:48:00,
2013-03-31 03:54:00,70.3,50.8,30.15,ESE,112,7.6,7.6,50,0.00,CLR,,0.00,WeatherDisplay:10.37,2013-03-31 07:54:00,
2013-03-31 03:59:00,70.3,50.3,30.15,ENE,68,8.1,8.1,49,0.00,CLR,,0.00,WeatherDisplay:10.37,2013-03-31 07:59:00,
2013-03-31 04:04:00,70.2,50.6,30.15,SE,135,5.8,5.8,50,0.00,CLR,,0.00,WeatherDisplay:10.37,2013-03-31 08:04:00,
2013-03-31 04:09:00,70.2,51.2,30.15,SSE,158,10.4,10.4,51,0.00,CLR,,0.00,WeatherDisplay:10.37,2013-03-31 08:09:00,
2013-03-31 04:14:00,70.2,51.2,30.15,East,90,5.8,5.8,51,0.00,CLR,,0.00,WeatherDisplay:10.37,2013-03-31 08:14:00,
2013-03-31 04:19:00,70.2,51.2,30.15,SE,135,8.1,8.1,51,0.00,CLR,,0.00,WeatherDisplay:10.37,2013-03-31 08:19:00,
2013-03-31 04:24:00,70.2,51.2,30.15,South,180,9.8,9.8,51,0.00,CLR,,0.00,WeatherDisplay:10.37,2013-03-31 08:24:00,
2013-03-31 04:29:00,70.2,51.2,30.15,SSE,158,10.4,10.4,51,0.00,CLR,,0.00,WeatherDisplay:10.37,2013-03-31 08:29:00,
2013-03-31 04:34:00,70.2,50.6,30.15,South,180,6.0,6.0,50,0.00,CLR,,0.00,WeatherDisplay:10.37,2013-03-31 08:34:00,
2013-03-31 04:39:00,70.0,50.5,30.15,SW,225,7.1,7.1,50,0.00,CLR,,0.00,WeatherDisplay:10.37,2013-03-31 08:39:00,
2013-03-31 04:44:00,70.0,51.0,30.15,SSE,158,8.1,8.1,51,0.00,CLR,,0.00,WeatherDisplay:10.37,2013-03-31 08:44:00,
2013-03-31 04:49:00,70.0,51.0,30.15,SSE,158,6.9,6.9,51,0.00,CLR,,0.00,WeatherDisplay:10.37,2013-03-31 08:49:00,
2013-03-31 04:55:00,70.0,51.0,30.15,SSE,164,5.0,12.0,51,0.00,CLR,,0.00,WeatherDisplay:10.37,2013-03-31 08:55:00,
2013-03-31 05:00:00,70.0,51.0,30.15,SE,135,6.9,6.9,51,0.00,CLR,,0.00,WeatherDisplay:10.37,2013-03-31 09:00:00,
2013-03-31 05:05:00,70.0,51.0,30.15,ESE,112,6.9,6.9,51,0.00,CLR,,0.00,WeatherDisplay:10.37,2013-03-31 09:05:00,
2013-03-31 05:11:00,70.0,51.0,30.15,South,180,7.4,7.4,51,0.00,CLR,,0.00,WeatherDisplay:10.37,2013-03-31 09:11:00,
2013-03-31 05:17:00,70.0,51.0,30.15,East,90,10.4,10.4,51,0.00,CLR,,0.00,WeatherDisplay:10.37,2013-03-31 09:17:00,
2013-03-31 05:22:00,70.0,51.0,30.15,SW,225,7.4,7.4,51,0.00,CLR,,0.00,WeatherDisplay:10.37,2013-03-31 09:22:00,
2013-03-31 05:27:00,70.0,51.0,30.15,SSE,158,10.0,10.0,51,0.00,CLR,,0.00,WeatherDisplay:10.37,2013-03-31 09:27:00,
2013-03-31 05:32:00,70.0,51.0,30.15,South,180,9.2,9.2,51,0.00,CLR,,0.00,WeatherDisplay:10.37,2013-03-31 09:32:00,
2013-03-31 05:37:00,70.0,51.0,30.15,SSE,158,5.8,5.8,51,0.00,CLR,,0.00,WeatherDisplay:10.37,2013-03-31 09:37:00,
2013-03-31 05:42:00,70.0,51.5,30.15,South,180,6.2,6.2,52,0.00,CLR,,0.00,WeatherDisplay:10.37,2013-03-31 09:42:00,
2013-03-31 05:47:00,70.0,52.1,30.15,SE,135,7.6,7.6,53,0.00,CLR,,0.00,WeatherDisplay:10.37,2013-03-31 09:47:00,
2013-03-31 05:53:00,70.0,52.1,30.15,South,180,11.5,11.5,53,0.00,CLR,,0.00,WeatherDisplay:10.37,2013-03-31 09:53:00,
2013-03-31 05:58:00,70.0,52.1,30.15,South,180,6.9,6.9,53,0.00,CLR,,0.00,WeatherDisplay:10.37,2013-03-31 09:58:00,
2013-03-31 06:03:00,70.0,52.1,30.15,South,180,7.1,7.1,53,0.00,CLR,,0.00,WeatherDisplay:10.37,2013-03-31 10:03:00,
2013-03-31 06:08:00,70.0,52.1,30.15,SSE,158,8.1,8.1,53,0.00,CLR,,0.00,WeatherDisplay:10.37,2013-03-31 10:08:00,
2013-03-31 06:13:00,70.0,52.6,30.15,SE,135,8.1,8.1,54,0.00,CLR,,0.00,WeatherDisplay:10.37,2013-03-31 10:13:00,
2013-03-31 06:19:00,70.0,51.5,30.15,South,180,9.2,9.2,52,0.00,CLR,,0.00,WeatherDisplay:10.37,2013-03-31 10:19:00,
2013-03-31 06:24:00,70.0,52.6,30.15,South,180,8.1,8.1,54,0.00,CLR,,0.00,WeatherDisplay:10.37,2013-03-31 10:24:00,
2013-03-31 06:29:00,69.8,52.4,30.15,South,180,5.9,6.0,54,0.00,CLR,,0.00,WeatherDisplay:10.37,2013-03-31 10:29:00,
2013-03-31 06:34:00,70.0,52.6,30.15,East,90,7.4,7.4,54,0.00,CLR,,0.00,WeatherDisplay:10.37,2013-03-31 10:34:00,
2013-03-31 06:39:00,70.0,52.6,30.15,East,90,5.8,5.8,54,0.00,CLR,,0.00,WeatherDisplay:10.37,2013-03-31 10:39:00,
2013-03-31 06:44:00,70.0,52.6,30.15,South,180,5.8,5.8,54,0.00,CLR,,0.00,WeatherDisplay:10.37,2013-03-31 10:44:00,
2013-03-31 06:49:00,70.0,53.1,30.15,SSE,158,8.1,8.1,55,0.00,CLR,,0.00,WeatherDisplay:10.37,2013-03-31 10:49:00,
2013-03-31 06:55:00,70.0,53.1,30.15,South,180,5.8,5.8,55,0.00,CLR,,0.00,WeatherDisplay:10.37,2013-03-31 10:55:00,
2013-03-31 07:00:00,70.0,53.1,30.15,SE,135,8.1,8.1,55,0.00,CLR,,0.00,WeatherDisplay:10.37,2013-03-31 11:00:00,
2013-03-31 07:05:00,70.0,53.1,30.18,SE,135,7.6,7.6,55,0.00,CLR,,0.00,WeatherDisplay:10.37,2013-03-31 11:05:00,
2013-03-31 07:10:00,70.0,53.1,30.18,SE,135,9.2,9.2,55,0.00,CLR,,0.00,WeatherDisplay:10.37,2013-03-31 11:10:00,
2013-03-31 07:15:00,70.0,53.1,30.18,SE,135,9.2,9.2,55,0.00,CLR,,0.00,WeatherDisplay:10.37,2013-03-31 11:15:00,
2013-03-31 07:20:00,70.0,52.6,30.18,South,180,5.8,5.8,54,0.00,CLR,,0.00,WeatherDisplay:10.37,2013-03-31 11:20:00,
2013-03-31 07:26:00,70.0,52.6,30.18,South,180,4.6,4.6,54,0.00,CLR,,0.00,WeatherDisplay:10.37,2013-03-31 11:26:00,
2013-03-31 07:31:00,70.0,52.6,30.18,SW,225,7.8,7.8,54,0.00,CLR,,0.00,WeatherDisplay:10.37,2013-03-31 11:31:00,
2013-03-31 07:36:00,70.2,53.7,30.18,South,180,5.4,5.4,56,0.00,CLR,,0.00,WeatherDisplay:10.37,2013-03-31 11:36:00,
2013-03-31 07:42:00,70.2,53.7,30.18,South,180,6.9,6.9,56,0.00,CLR,,0.00,WeatherDisplay:10.37,2013-03-31 11:42:00,
2013-03-31 07:47:00,70.2,53.2,30.18,SSE,158,5.8,5.8,55,0.00,CLR,,0.00,WeatherDisplay:10.37,2013-03-31 11:47:00,
2013-03-31 07:52:00,70.3,53.4,30.18,SW,225,9.4,9.4,55,0.00,CLR,,0.00,WeatherDisplay:10.37,2013-03-31 11:52:00,
2013-03-31 07:57:00,70.3,53.4,30.18,South,180,8.1,8.1,55,0.00,CLR,,0.00,WeatherDisplay:10.37,2013-03-31 11:57:00,
2013-03-31 08:03:00,70.5,54.1,30.18,SE,135,8.1,8.1,56,0.00,CLR,,0.00,WeatherDisplay:10.37,2013-03-31 12:03:00,
2013-03-31 08:08:00,70.5,54.5,30.18,SSE,158,7.8,7.8,57,0.00,CLR,,0.00,WeatherDisplay:10.37,2013-03-31 12:08:00,
2013-03-31 08:13:00,70.5,54.1,30.18,SE,135,5.8,5.8,56,0.00,CLR,,0.00,WeatherDisplay:10.37,2013-03-31 12:13:00,
2013-03-31 08:18:00,70.5,54.1,30.18,South,180,6.9,6.9,56,0.00,CLR,,0.00,WeatherDisplay:10.37,2013-03-31 12:18:00,
2013-03-31 08:23:00,70.9,54.4,30.18,SE,135,7.1,7.1,56,0.00,CLR,,0.00,WeatherDisplay:10.37,2013-03-31 12:23:00,
2013-03-31 08:28:00,70.9,54.4,30.18,South,180,6.9,6.9,56,0.00,CLR,,0.00,WeatherDisplay:10.37,2013-03-31 12:28:00,
2013-03-31 08:34:00,71.1,55.5,30.18,SW,225,8.1,8.1,58,0.00,CLR,,0.00,WeatherDisplay:10.37,2013-03-31 12:34:00,
2013-03-31 08:39:00,71.2,54.7,30.18,SSW,202,6.4,6.4,56,0.00,CLR,,0.00,WeatherDisplay:10.37,2013-03-31 12:39:00,
2013-03-31 08:44:00,71.6,56.0,30.18,East,90,8.1,8.1,58,0.00,CLR,,0.00,WeatherDisplay:10.37,2013-03-31 12:44:00,
2013-03-31 08:49:00,71.8,55.7,30.18,South,180,8.1,8.1,57,0.00,CLR,,0.00,WeatherDisplay:10.37,2013-03-31 12:49:00,
2013-03-31 08:54:00,71.6,55.6,30.18,South,180,5.9,5.9,57,0.00,CLR,,0.00,WeatherDisplay:10.37,2013-03-31 12:54:00,
2013-03-31 08:59:00,71.8,56.2,30.18,SW,225,9.2,9.2,58,0.00,CLR,,0.00,WeatherDisplay:10.37,2013-03-31 12:59:00,
2013-03-31 09:04:00,72.0,56.4,30.18,South,180,5.8,5.8,58,0.00,CLR,,0.00,WeatherDisplay:10.37,2013-03-31 13:04:00,
2013-03-31 09:10:00,72.1,56.5,30.18,WSW,248,7.8,7.8,58,0.00,CLR,,0.00,WeatherDisplay:10.37,2013-03-31 13:10:00,
2013-03-31 09:15:00,72.1,56.1,30.18,SE,135,6.0,6.0,57,0.00,CLR,,0.00,WeatherDisplay:10.37,2013-03-31 13:15:00,
2013-03-31 09:20:00,72.3,56.7,30.18,SE,135,8.1,8.1,58,0.00,CLR,,0.00,WeatherDisplay:10.37,2013-03-31 13:20:00,
2013-03-31 09:25:00,72.5,56.4,30.18,SSE,158,11.5,11.5,57,0.00,CLR,,0.00,WeatherDisplay:10.37,2013-03-31 13:25:00,
2013-03-31 09:30:00,72.7,57.0,30.18,SE,135,8.1,8.1,58,0.00,CLR,,0.00,WeatherDisplay:10.37,2013-03-31 13:30:00,
2013-03-31 09:35:00,72.9,57.2,30.18,SE,135,6.9,6.9,58,0.00,CLR,,0.00,WeatherDisplay:10.37,2013-03-31 13:35:00,
2013-03-31 09:40:00,72.7,56.6,30.18,SSE,164,3.0,6.0,57,0.00,CLR,,0.00,WeatherDisplay:10.37,2013-03-31 13:40:00,
2013-03-31 09:45:00,72.9,56.7,30.18,SE,135,8.1,8.1,57,0.00,CLR,,0.00,WeatherDisplay:10.37,2013-03-31 13:45:00,
2013-03-31 09:50:00,73.0,57.4,30.18,SW,225,6.9,6.9,58,0.00,CLR,,0.00,WeatherDisplay:10.37,2013-03-31 13:50:00,
2013-03-31 09:55:00,73.2,57.1,30.18,ESE,112,5.8,5.8,57,0.00,CLR,,0.00,WeatherDisplay:10.37,2013-03-31 13:55:00,
2013-03-31 10:00:00,73.2,57.1,30.18,SSE,160,6.0,10.0,57,0.00,CLR,,0.00,WeatherDisplay:10.37,2013-03-31 14:00:00,
2013-03-31 10:06:00,73.4,57.2,30.21,South,180,6.9,6.9,57,0.00,CLR,,0.00,WeatherDisplay:10.37,2013-03-31 14:06:00,
2013-03-31 10:11:00,73.9,58.2,30.21,SE,135,10.4,10.4,58,0.00,CLR,,0.00,WeatherDisplay:10.37,2013-03-31 14:11:00,
2013-03-31 10:17:00,73.9,58.7,30.21,SW,225,8.1,8.1,59,0.00,CLR,,0.00,WeatherDisplay:10.37,2013-03-31 14:17:00,
2013-03-31 10:22:00,73.9,58.2,30.21,SSE,158,6.9,6.9,58,0.00,CLR,,0.00,WeatherDisplay:10.37,2013-03-31 14:22:00,
2013-03-31 10:27:00,74.1,58.4,30.21,SE,135,10.4,10.4,58,0.00,CLR,,0.00,WeatherDisplay:10.37,2013-03-31 14:27:00,
2013-03-31 10:32:00,74.1,58.4,30.21,SSE,158,9.2,9.2,58,0.00,CLR,,0.00,WeatherDisplay:10.37,2013-03-31 14:32:00,
2013-03-31 10:37:00,74.3,58.6,30.21,SSW,202,8.1,8.1,58,0.00,CLR,,0.00,WeatherDisplay:10.37,2013-03-31 14:37:00,
2013-03-31 10:43:00,74.5,58.7,30.21,South,180,6.9,6.9,58,0.00,CLR,,0.00,WeatherDisplay:10.37,2013-03-31 14:43:00,
2013-03-31 10:48:00,74.8,59.1,30.21,SW,225,10.5,10.5,58,0.00,CLR,,0.00,WeatherDisplay:10.37,2013-03-31 14:48:00,
2013-03-31 10:53:00,74.8,58.6,30.21,East,90,6.9,6.9,57,0.00,CLR,,0.00,WeatherDisplay:10.37,2013-03-31 14:53:00,
2013-03-31 10:58:00,74.8,58.6,30.21,South,180,5.8,5.8,57,0.00,CLR,,0.00,WeatherDisplay:10.37,2013-03-31 14:58:00,
2013-03-31 11:03:00,75.4,59.1,30.21,South,180,6.9,6.9,57,0.00,CLR,,0.00,WeatherDisplay:10.37,2013-03-31 15:03:00,
2013-03-31 11:08:00,75.6,59.3,30.21,SSE,158,8.7,8.7,57,0.00,CLR,,0.00,WeatherDisplay:10.37,2013-03-31 15:08:00,
2013-03-31 11:13:00,75.7,59.9,30.21,SW,225,6.2,6.2,58,0.00,CLR,,0.00,WeatherDisplay:10.37,2013-03-31 15:13:00,
2013-03-31 11:18:00,75.9,60.1,30.18,South,180,13.8,13.8,58,0.00,CLR,,0.00,WeatherDisplay:10.37,2013-03-31 15:18:00,
2013-03-31 11:23:00,76.1,60.2,30.18,SSE,158,9.2,9.2,58,0.00,CLR,,0.00,WeatherDisplay:10.37,2013-03-31 15:23:00,
2013-03-31 11:29:00,76.1,60.2,30.18,SE,135,7.1,7.1,58,0.00,CLR,,0.00,WeatherDisplay:10.37,2013-03-31 15:29:00,
2013-03-31 11:34:00,76.3,59.9,30.18,South,180,13.2,13.2,57,0.00,CLR,,0.00,WeatherDisplay:10.37,2013-03-31 15:34:00,
2013-03-31 11:39:00,76.6,60.8,30.18,South,180,6.9,6.9,58,0.00,CLR,,0.00,WeatherDisplay:10.37,2013-03-31 15:39:00,
2013-03-31 11:44:00,76.8,60.9,30.18,SW,225,9.2,9.2,58,0.00,CLR,,0.00,WeatherDisplay:10.37,2013-03-31 15:44:00,
2013-03-31 11:49:00,77.0,61.1,30.18,SSE,158,10.0,10.0,58,0.00,CLR,,0.00,WeatherDisplay:10.37,2013-03-31 15:49:00,
2013-03-31 11:54:00,77.0,61.1,30.18,South,180,10.5,10.5,58,0.00,CLR,,0.00,WeatherDisplay:10.37,2013-03-31 15:54:00,
2013-03-31 12:00:00,77.2,60.8,30.18,SW,225,14.5,14.5,57,0.00,CLR,,0.00,WeatherDisplay:10.37,2013-03-31 16:00:00,
2013-03-31 12:05:00,77.4,60.9,30.18,SSE,151,6.0,15.0,57,0.00,CLR,,0.00,WeatherDisplay:10.37,2013-03-31 16:05:00,
2013-03-31 12:10:00,77.5,61.1,30.18,South,180,9.2,9.2,57,0.00,CLR,,0.00,WeatherDisplay:10.37,2013-03-31 16:10:00,
2013-03-31 12:15:00,77.7,61.3,30.18,South,180,9.2,9.2,57,0.00,CLR,,0.00,WeatherDisplay:10.37,2013-03-31 16:15:00,
2013-03-31 12:20:00,77.9,60.9,30.18,SSE,158,9.2,9.2,56,0.00,CLR,,0.00,WeatherDisplay:10.37,2013-03-31 16:20:00,
2013-03-31 12:26:00,78.3,61.3,30.18,East,90,6.9,6.9,56,0.00,CLR,,0.00,WeatherDisplay:10.37,2013-03-31 16:26:00,
2013-03-31 12:31:00,78.4,61.4,30.18,SE,138,8.0,14.0,56,0.00,CLR,,0.00,WeatherDisplay:10.37,2013-03-31 16:31:00,
2013-03-31 12:36:00,78.4,61.4,30.18,NE,45,9.2,9.2,56,0.00,CLR,,0.00,WeatherDisplay:10.37,2013-03-31 16:36:00,
2013-03-31 12:41:00,78.4,61.4,30.18,SE,135,10.9,10.9,56,0.00,CLR,,0.00,WeatherDisplay:10.37,2013-03-31 16:41:00,
2013-03-31 12:46:00,78.6,61.6,30.18,SSE,158,8.1,8.1,56,0.00,CLR,,0.00,WeatherDisplay:10.37,2013-03-31 16:46:00,
2013-03-31 12:51:00,78.3,60.8,30.18,South,180,10.5,10.5,55,0.00,CLR,,0.00,WeatherDisplay:10.37,2013-03-31 16:51:00,
2013-03-31 12:57:00,78.8,61.3,30.18,SE,135,9.2,9.2,55,0.00,CLR,,0.00,WeatherDisplay:10.37,2013-03-31 16:57:00,
2013-03-31 13:02:00,78.4,61.4,30.18,SE,135,10.5,10.5,56,0.00,CLR,,0.00,WeatherDisplay:10.37,2013-03-31 17:02:00,
2013-03-31 13:07:00,78.6,61.6,30.18,SSE,158,4.6,4.6,56,0.00,CLR,,0.00,WeatherDisplay:10.37,2013-03-31 17:07:00,
2013-03-31 13:13:00,78.8,61.3,30.18,South,180,8.5,8.5,55,0.00,CLR,,0.00,WeatherDisplay:10.37,2013-03-31 17:13:00,
2013-03-31 13:18:00,79.2,61.6,30.18,SSE,158,9.2,9.2,55,0.00,CLR,,0.00,WeatherDisplay:10.37,2013-03-31 17:18:00,
2013-03-31 13:23:00,79.2,61.1,30.18,South,180,10.4,10.4,54,0.00,CLR,,0.00,WeatherDisplay:10.37,2013-03-31 17:23:00,
2013-03-31 13:28:00,79.0,60.9,30.18,SSW,202,7.6,7.6,54,0.00,CLR,,0.00,WeatherDisplay:10.37,2013-03-31 17:28:00,
2013-03-31 13:34:00,78.8,60.2,30.15,SE,135,11.4,11.4,53,0.00,CLR,,0.00,WeatherDisplay:10.37,2013-03-31 17:34:00,
2013-03-31 13:39:00,78.8,59.7,30.15,SE,135,10.4,10.4,52,0.00,CLR,,0.00,WeatherDisplay:10.37,2013-03-31 17:39:00,
2013-03-31 13:44:00,78.8,59.7,30.15,South,180,4.6,5.4,52,0.00,CLR,,0.00,WeatherDisplay:10.37,2013-03-31 17:44:00,
2013-03-31 13:49:00,79.2,60.6,30.15,SSE,158,9.2,9.2,53,0.00,CLR,,0.00,WeatherDisplay:10.37,2013-03-31 17:49:00,
2013-03-31 13:54:00,79.2,60.6,30.15,South,180,11.5,11.5,53,0.00,CLR,,0.00,WeatherDisplay:10.37,2013-03-31 17:54:00,
2013-03-31 13:59:00,79.3,60.2,30.15,South,180,9.2,9.2,52,0.00,CLR,,0.00,WeatherDisplay:10.37,2013-03-31 17:59:00,
2013-03-31 14:04:00,79.7,61.1,30.15,South,180,10.4,10.4,53,0.00,CLR,,0.00,WeatherDisplay:10.37,2013-03-31 18:04:00,
2013-03-31 14:10:00,79.7,61.1,30.15,South,180,6.9,6.9,53,0.00,CLR,,0.00,WeatherDisplay:10.37,2013-03-31 18:10:00,
2013-03-31 14:15:00,80.1,61.4,30.15,SSE,158,9.2,9.2,53,0.00,CLR,,0.00,WeatherDisplay:10.37,2013-03-31 18:15:00,
2013-03-31 14:20:00,80.1,60.8,30.15,SSE,166,5.0,10.0,52,0.00,CLR,,0.00,WeatherDisplay:10.37,2013-03-31 18:20:00,
2013-03-31 14:25:00,80.1,61.4,30.15,South,180,6.9,6.9,53,0.00,CLR,,0.00,WeatherDisplay:10.37,2013-03-31 18:25:00,
2013-03-31 14:30:00,79.9,60.7,30.15,SE,135,9.2,9.2,52,0.00,CLR,,0.00,WeatherDisplay:10.37,2013-03-31 18:30:00,
2013-03-31 14:36:00,80.2,61.6,30.15,SSE,158,4.6,4.6,53,0.00,CLR,,0.00,WeatherDisplay:10.37,2013-03-31 18:36:00,
2013-03-31 14:41:00,80.2,61.6,30.15,South,180,8.5,8.5,53,0.00,CLR,,0.00,WeatherDisplay:10.37,2013-03-31 18:41:00,
2013-03-31 14:46:00,80.6,61.9,30.15,SSE,158,8.1,8.1,53,0.00,CLR,,0.00,WeatherDisplay:10.37,2013-03-31 18:46:00,
2013-03-31 14:51:00,80.6,61.9,30.15,ESE,112,9.2,9.2,53,0.00,CLR,,0.00,WeatherDisplay:10.37,2013-03-31 18:51:00,
2013-03-31 14:56:00,81.0,62.2,30.15,South,180,7.6,7.6,53,0.00,CLR,,0.00,WeatherDisplay:10.37,2013-03-31 18:56:00,
2013-03-31 15:01:00,81.0,62.2,30.15,SE,135,9.2,9.2,53,0.00,CLR,,0.00,WeatherDisplay:10.37,2013-03-31 19:01:00,
2013-03-31 15:07:00,81.3,62.6,30.15,ESE,112,8.1,8.1,53,0.00,CLR,,0.00,WeatherDisplay:10.37,2013-03-31 19:07:00,
2013-03-31 15:12:00,81.1,62.4,30.15,NE,45,5.8,5.8,53,0.00,CLR,,0.00,WeatherDisplay:10.37,2013-03-31 19:12:00,
2013-03-31 15:17:00,81.5,63.3,30.15,South,180,8.1,8.1,54,0.00,CLR,,0.00,WeatherDisplay:10.37,2013-03-31 19:17:00,
2013-03-31 15:22:00,81.0,62.2,30.15,SW,225,8.5,8.5,53,0.00,CLR,,0.00,WeatherDisplay:10.37,2013-03-31 19:22:00,
2013-03-31 15:28:00,80.6,61.9,30.15,SSW,202,11.5,11.5,53,0.00,CLR,,0.00,WeatherDisplay:10.37,2013-03-31 19:28:00,
2013-03-31 15:33:00,81.7,63.4,30.15,South,180,8.1,8.1,54,0.00,CLR,,0.00,WeatherDisplay:10.37,2013-03-31 19:33:00,
2013-03-31 15:38:00,81.3,62.6,30.15,South,180,6.9,6.9,53,0.00,CLR,,0.00,WeatherDisplay:10.37,2013-03-31 19:38:00,
2013-03-31 15:43:00,82.2,63.9,30.15,SW,225,7.8,7.8,54,0.00,CLR,,0.00,WeatherDisplay:10.37,2013-03-31 19:43:00,
2013-03-31 15:48:00,82.2,63.4,30.12,South,180,8.1,8.1,53,0.00,CLR,,0.00,WeatherDisplay:10.37,2013-03-31 19:48:00,
2013-03-31 15:54:00,82.0,63.8,30.12,SW,225,9.2,9.2,54,0.00,CLR,,0.00,WeatherDisplay:10.37,2013-03-31 19:54:00,
2013-03-31 15:59:00,81.9,63.1,30.12,South,180,8.1,8.1,53,0.00,CLR,,0.00,WeatherDisplay:10.37,2013-03-31 19:59:00,
2013-03-31 16:04:00,82.6,64.3,30.15,ESE,112,8.1,8.1,54,0.00,CLR,,0.00,WeatherDisplay:10.37,2013-03-31 20:04:00,
2013-03-31 16:09:00,82.0,63.2,30.15,SSE,158,10.4,10.4,53,0.00,CLR,,0.00,WeatherDisplay:10.37,2013-03-31 20:09:00,
2013-03-31 16:14:00,82.0,63.8,30.15,ESE,112,9.2,9.2,54,0.00,CLR,,0.00,WeatherDisplay:10.37,2013-03-31 20:14:00,
2013-03-31 16:19:00,81.5,63.3,30.12,SSE,158,10.7,10.7,54,0.00,CLR,,0.00,WeatherDisplay:10.37,2013-03-31 20:19:00,
2013-03-31 16:24:00,81.7,63.4,30.12,SSW,202,10.4,10.4,54,0.00,CLR,,0.00,WeatherDisplay:10.37,2013-03-31 20:24:00,
2013-03-31 16:29:00,82.4,63.5,30.12,SSE,158,6.9,6.9,53,0.00,CLR,,0.00,WeatherDisplay:10.37,2013-03-31 20:29:00,
2013-03-31 16:34:00,82.0,63.2,30.09,SSE,158,9.2,9.2,53,0.00,CLR,,0.00,WeatherDisplay:10.37,2013-03-31 20:34:00,
2013-03-31 16:40:00,82.9,64.0,30.09,SSE,158,8.1,8.1,53,0.00,CLR,,0.00,WeatherDisplay:10.37,2013-03-31 20:40:00,
2013-03-31 16:45:00,82.8,63.3,30.09,SE,135,12.7,12.7,52,0.00,CLR,,0.00,WeatherDisplay:10.37,2013-03-31 20:45:00,
2013-03-31 16:50:00,82.9,63.5,30.09,NE,45,5.8,5.8,52,0.00,CLR,,0.00,WeatherDisplay:10.37,2013-03-31 20:50:00,
2013-03-31 16:55:00,82.9,63.5,30.09,East,90,11.5,11.5,52,0.00,CLR,,0.00,WeatherDisplay:10.37,2013-03-31 20:55:00,
2013-03-31 17:00:00,82.9,63.5,30.09,NE,45,8.1,8.1,52,0.00,CLR,,0.00,WeatherDisplay:10.37,2013-03-31 21:00:00,
2013-03-31 17:05:00,82.6,63.2,30.09,SSW,202,7.1,7.1,52,0.00,CLR,,0.00,WeatherDisplay:10.37,2013-03-31 21:05:00,
2013-03-31 17:10:00,82.9,63.0,30.09,SE,135,5.8,5.8,51,0.00,CLR,,0.00,WeatherDisplay:10.37,2013-03-31 21:10:00,
2013-03-31 17:16:00,82.8,63.3,30.09,South,180,8.1,8.1,52,0.00,CLR,,0.00,WeatherDisplay:10.37,2013-03-31 21:16:00,
2013-03-31 17:21:00,83.5,64.0,30.09,SE,135,6.0,6.0,52,0.00,CLR,,0.00,WeatherDisplay:10.37,2013-03-31 21:21:00,
2013-03-31 17:26:00,83.1,63.1,30.09,ESE,112,11.5,11.5,51,0.00,CLR,,0.00,WeatherDisplay:10.37,2013-03-31 21:26:00,
2013-03-31 17:31:00,83.7,64.2,30.09,SE,135,7.6,7.6,52,0.00,CLR,,0.00,WeatherDisplay:10.37,2013-03-31 21:31:00,
2013-03-31 17:36:00,83.5,64.0,30.09,South,180,5.8,5.8,52,0.00,CLR,,0.00,WeatherDisplay:10.37,2013-03-31 21:36:00,
2013-03-31 17:41:00,83.7,63.6,30.09,South,180,5.8,5.8,51,0.00,CLR,,0.00,WeatherDisplay:10.37,2013-03-31 21:41:00,
2013-03-31 17:47:00,83.8,63.8,30.09,South,180,9.2,9.2,51,0.00,CLR,,0.00,WeatherDisplay:10.37,2013-03-31 21:47:00,
2013-03-31 17:52:00,84.0,63.9,30.09,SSE,158,6.9,6.9,51,0.00,CLR,,0.00,WeatherDisplay:10.37,2013-03-31 21:52:00,
2013-03-31 17:57:00,84.4,63.7,30.09,South,180,8.1,8.1,50,0.00,CLR,,0.00,WeatherDisplay:10.37,2013-03-31 21:57:00,
2013-03-31 18:02:00,83.8,63.2,30.09,South,180,11.5,11.5,50,0.00,CLR,,0.00,WeatherDisplay:10.37,2013-03-31 22:02:00,
2013-03-31 18:07:00,84.0,63.4,30.09,South,180,9.2,9.2,50,0.00,CLR,,0.00,WeatherDisplay:10.37,2013-03-31 22:07:00,
2013-03-31 18:12:00,83.8,63.2,30.09,SE,135,12.7,12.7,50,0.00,CLR,,0.00,WeatherDisplay:10.37,2013-03-31 22:12:00,
2013-03-31 18:17:00,83.7,63.0,30.09,East,90,12.7,12.7,50,0.00,CLR,,0.00,WeatherDisplay:10.37,2013-03-31 22:17:00,
2013-03-31 18:22:00,83.5,62.9,30.09,South,180,9.2,9.2,50,0.00,CLR,,0.00,WeatherDisplay:10.37,2013-03-31 22:22:00,
2013-03-31 18:27:00,83.8,63.2,30.09,South,180,10.9,10.9,50,0.00,CLR,,0.00,WeatherDisplay:10.37,2013-03-31 22:27:00,
2013-03-31 18:32:00,83.1,62.0,30.06,SE,135,8.1,8.1,49,0.00,CLR,,0.00,WeatherDisplay:10.37,2013-03-31 22:32:00,
2013-03-31 18:37:00,83.3,62.7,30.06,SE,135,10.4,10.4,50,0.00,CLR,,0.00,WeatherDisplay:10.37,2013-03-31 22:37:00,
2013-03-31 18:43:00,82.9,62.4,30.06,South,180,9.2,9.2,50,0.00,CLR,,0.00,WeatherDisplay:10.37,2013-03-31 22:43:00,
2013-03-31 18:48:00,82.9,62.4,30.09,SSE,158,6.9,6.9,50,0.00,CLR,,0.00,WeatherDisplay:10.37,2013-03-31 22:48:00,
2013-03-31 18:53:00,82.4,61.9,30.09,South,180,8.1,8.1,50,0.00,CLR,,0.00,WeatherDisplay:10.37,2013-03-31 22:53:00,
2013-03-31 18:58:00,82.2,62.3,30.09,SSE,158,8.7,8.7,51,0.00,CLR,,0.00,WeatherDisplay:10.37,2013-03-31 22:58:00,
2013-03-31 19:04:00,81.9,62.0,30.09,WSW,248,9.2,9.2,51,0.00,CLR,,0.00,WeatherDisplay:10.37,2013-03-31 23:04:00,
2013-03-31 19:09:00,81.7,61.8,30.09,SW,225,4.6,4.6,51,0.00,CLR,,0.00,WeatherDisplay:10.37,2013-03-31 23:09:00,
2013-03-31 19:14:00,80.8,61.5,30.09,South,180,8.1,8.1,52,0.00,CLR,,0.00,WeatherDisplay:10.37,2013-03-31 23:14:00,
2013-03-31 19:19:00,80.8,61.5,30.09,South,180,7.6,7.6,52,0.00,CLR,,0.00,WeatherDisplay:10.37,2013-03-31 23:19:00,
2013-03-31 19:24:00,80.2,61.6,30.09,SE,135,5.8,5.8,53,0.00,CLR,,0.00,WeatherDisplay:10.37,2013-03-31 23:24:00,
2013-03-31 19:29:00,79.5,60.9,30.09,SSE,158,5.8,5.8,53,0.00,CLR,,0.00,WeatherDisplay:10.37,2013-03-31 23:29:00,
2013-03-31 19:34:00,79.0,60.9,30.09,SSE,158,6.9,6.9,54,0.00,CLR,,0.00,WeatherDisplay:10.37,2013-03-31 23:34:00,
2013-03-31 19:39:00,78.8,60.7,30.09,SSW,202,5.8,5.8,54,0.00,CLR,,0.00,WeatherDisplay:10.37,2013-03-31 23:39:00,
2013-03-31 19:44:00,79.0,60.9,30.09,ESE,112,8.1,8.1,54,0.00,CLR,,0.00,WeatherDisplay:10.37,2013-03-31 23:44:00,
2013-03-31 19:49:00,78.4,61.4,30.12,SSE,158,8.1,8.1,56,0.00,CLR,,0.00,WeatherDisplay:10.37,2013-03-31 23:49:00,
2013-03-31 19:55:00,78.1,61.6,30.12,SE,135,9.8,9.8,57,0.00,CLR,,0.00,WeatherDisplay:10.37,2013-03-31 23:55:00,
2013-03-31 20:00:00,77.9,61.4,30.12,East,90,9.2,9.2,57,0.00,CLR,,0.00,WeatherDisplay:10.37,2013-04-01 00:00:00,
2013-03-31 20:05:00,78.1,61.6,30.09,East,90,8.1,8.1,57,0.00,CLR,,0.00,WeatherDisplay:10.37,2013-04-01 00:05:00,
2013-03-31 20:10:00,77.9,61.9,30.09,SSE,149,5.0,10.0,58,0.00,CLR,,0.00,WeatherDisplay:10.37,2013-04-01 00:10:00,
2013-03-31 20:15:00,77.4,61.4,30.06,SSW,202,4.6,4.6,58,0.00,CLR,,0.00,WeatherDisplay:10.37,2013-04-01 00:15:00,
2013-03-31 20:21:00,77.5,62.1,30.06,SE,135,6.9,6.9,59,0.00,CLR,,0.00,WeatherDisplay:10.37,2013-04-01 00:21:00,
2013-03-31 20:26:00,77.5,62.1,30.06,South,180,8.1,8.1,59,0.00,CLR,,0.00,WeatherDisplay:10.37,2013-04-01 00:26:00,
2013-03-31 20:31:00,77.4,61.9,30.09,SSE,158,9.2,9.2,59,0.00,CLR,,0.00,WeatherDisplay:10.37,2013-04-01 00:31:00,
2013-03-31 20:37:00,77.2,61.7,30.09,SE,135,11.5,11.5,59,0.00,CLR,,0.00,WeatherDisplay:10.37,2013-04-01 00:37:00,
2013-03-31 20:42:00,77.4,61.9,30.09,SSW,202,9.2,9.2,59,0.00,CLR,,0.00,WeatherDisplay:10.37,2013-04-01 00:42:00,
2013-03-31 20:47:00,77.0,61.6,30.09,SSE,158,5.8,5.8,59,0.00,CLR,,0.00,WeatherDisplay:10.37,2013-04-01 00:47:00,
2013-03-31 20:52:00,77.0,61.6,30.09,South,180,9.2,9.2,59,0.00,CLR,,0.00,WeatherDisplay:10.37,2013-04-01 00:52:00,
2013-03-31 20:57:00,77.0,61.6,30.09,South,180,5.8,5.8,59,0.00,CLR,,0.00,WeatherDisplay:10.37,2013-04-01 00:57:00,
2013-03-31 21:03:00,76.6,62.2,30.09,SSW,202,8.1,8.1,61,0.00,CLR,,0.00,WeatherDisplay:10.37,2013-04-01 01:03:00,
2013-03-31 21:08:00,76.5,62.0,30.09,East,90,4.6,4.6,61,0.00,CLR,,0.00,WeatherDisplay:10.37,2013-04-01 01:08:00,
2013-03-31 21:13:00,76.1,61.7,30.09,South,180,5.8,5.8,61,0.00,CLR,,0.00,WeatherDisplay:10.37,2013-04-01 01:13:00,
2013-03-31 21:18:00,76.5,62.0,30.06,SSE,158,9.2,9.2,61,0.00,CLR,,0.00,WeatherDisplay:10.37,2013-04-01 01:18:00,
2013-03-31 21:23:00,76.1,62.1,30.06,East,90,9.2,9.2,62,0.00,CLR,,0.00,WeatherDisplay:10.37,2013-04-01 01:23:00,
2013-03-31 21:29:00,76.1,62.1,30.06,South,180,9.2,9.2,62,0.00,CLR,,0.00,WeatherDisplay:10.37,2013-04-01 01:29:00,
2013-03-31 21:34:00,76.1,61.7,30.09,South,180,8.7,8.7,61,0.00,CLR,,0.00,WeatherDisplay:10.37,2013-04-01 01:34:00,
2013-03-31 21:39:00,75.9,62.0,30.09,SSE,158,8.5,8.5,62,0.00,CLR,,0.00,WeatherDisplay:10.37,2013-04-01 01:39:00,
2013-03-31 21:44:00,76.1,62.1,30.09,ENE,68,4.9,4.9,62,0.00,CLR,,0.00,WeatherDisplay:10.37,2013-04-01 01:44:00,
2013-03-31 21:49:00,75.9,62.0,30.09,South,180,6.9,6.9,62,0.00,CLR,,0.00,WeatherDisplay:10.37,2013-04-01 01:49:00,
2013-03-31 21:54:00,75.9,62.0,30.09,South,180,8.1,8.1,62,0.00,CLR,,0.00,WeatherDisplay:10.37,2013-04-01 01:54:00,
2013-03-31 21:59:00,75.9,61.5,30.09,SW,225,5.8,5.8,61,0.00,CLR,,0.00,WeatherDisplay:10.37,2013-04-01 01:59:00,
2013-03-31 22:05:00,75.9,61.5,30.09,South,180,6.9,6.9,61,0.00,CLR,,0.00,WeatherDisplay:10.37,2013-04-01 02:05:00,
2013-03-31 22:10:00,75.7,61.8,30.09,South,180,5.8,5.8,62,0.00,CLR,,0.00,WeatherDisplay:10.37,2013-04-01 02:10:00,
2013-03-31 22:15:00,75.7,61.3,30.09,South,180,4.9,4.9,61,0.00,CLR,,0.00,WeatherDisplay:10.37,2013-04-01 02:15:00,
2013-03-31 22:20:00,75.7,61.3,30.09,ENE,68,8.1,8.1,61,0.00,CLR,,0.00,WeatherDisplay:10.37,2013-04-01 02:20:00,
2013-03-31 22:25:00,75.6,61.2,30.09,South,180,6.0,6.0,61,0.00,CLR,,0.00,WeatherDisplay:10.37,2013-04-01 02:25:00,
2013-03-31 22:30:00,75.6,61.2,30.09,East,90,8.1,8.1,61,0.00,CLR,,0.00,WeatherDisplay:10.37,2013-04-01 02:30:00,
2013-03-31 22:35:00,75.6,61.2,30.09,SE,135,8.1,8.1,61,0.00,CLR,,0.00,WeatherDisplay:10.37,2013-04-01 02:35:00,
2013-03-31 22:41:00,75.6,61.2,30.09,South,180,8.1,8.1,61,0.00,CLR,,0.00,WeatherDisplay:10.37,2013-04-01 02:41:00,
2013-03-31 22:47:00,75.4,61.0,30.09,SE,135,4.6,4.6,61,0.00,CLR,,0.00,WeatherDisplay:10.37,2013-04-01 02:47:00,
2013-03-31 22:52:00,75.2,61.3,30.09,South,180,8.1,8.1,62,0.00,CLR,,0.00,WeatherDisplay:10.37,2013-04-01 02:52:00,
2013-03-31 22:57:00,75.0,61.1,30.09,South,180,5.8,5.8,62,0.00,CLR,,0.00,WeatherDisplay:10.37,2013-04-01 02:57:00,
2013-03-31 23:02:00,75.2,61.3,30.09,SE,135,6.9,6.9,62,0.00,CLR,,0.00,WeatherDisplay:10.37,2013-04-01 03:02:00,
2013-03-31 23:07:00,75.2,61.3,30.09,SSW,202,4.0,4.0,62,0.00,CLR,,0.00,WeatherDisplay:10.37,2013-04-01 03:07:00,
2013-03-31 23:12:00,75.0,61.6,30.09,SE,135,6.9,6.9,63,0.00,CLR,,0.00,WeatherDisplay:10.37,2013-04-01 03:12:00,
2013-03-31 23:18:00,75.0,61.6,30.09,South,180,4.7,4.7,63,0.00,CLR,,0.00,WeatherDisplay:10.37,2013-04-01 03:18:00,
2013-03-31 23:23:00,75.2,61.3,30.09,West,270,4.6,4.6,62,0.00,CLR,,0.00,WeatherDisplay:10.37,2013-04-01 03:23:00,
2013-03-31 23:28:00,75.0,61.6,30.09,South,180,6.2,6.2,63,0.00,CLR,,0.00,WeatherDisplay:10.37,2013-04-01 03:28:00,
2013-03-31 23:34:00,75.0,61.6,30.09,ESE,112,5.8,5.8,63,0.00,CLR,,0.00,WeatherDisplay:10.37,2013-04-01 03:34:00,
2013-03-31 23:39:00,74.8,61.8,30.09,SE,135,4.6,4.6,64,0.00,CLR,,0.00,WeatherDisplay:10.37,2013-04-01 03:39:00,
2013-03-31 23:44:00,74.8,61.4,30.09,SE,135,6.9,6.9,63,0.00,CLR,,0.00,WeatherDisplay:10.37,2013-04-01 03:44:00,
2013-03-31 23:49:00,74.8,61.8,30.09,South,180,5.8,5.8,64,0.00,CLR,,0.00,WeatherDisplay:10.37,2013-04-01 03:49:00,
2013-03-31 23:54:00,74.8,61.8,30.09,SSE,158,5.8,5.8,64,0.00,CLR,,0.00,WeatherDisplay:10.37,2013-04-01 03:54:00,
2013-03-31 23:59:00,74.8,61.4,30.09,South,180,7.8,7.8,63,0.00,CLR,,0.00,WeatherDisplay:10.37,2013-04-01 03:59:00,